sensor_id;sensor_type;location;lat;lon;timestamp;P1;durP1;ratioP1;P2;durP2;ratioP2
15155;SDS011;7678;50.058;8.306;2024-02-15T00:00:32;16.13;;;13.40;;
15155;SDS011;7678;50.058;8.306;2024-02-15T00:03:02;18.37;;;13.63;;
15155;SDS011;7678;50.058;8.306;2024-02-15T00:05:33;15.67;;;14.03;;
15155;SDS011;7678;50.058;8.306;2024-02-15T00:08:03;16.10;;;13.03;;
15155;SDS011;7678;50.058;8.306;2024-02-15T00:10:32;23.97;;;15.30;;
15155;SDS011;7678;50.058;8.306;2024-02-15T00:13:00;19.33;;;16.27;;
15155;SDS011;7678;50.058;8.306;2024-02-15T00:15:37;21.47;;;17.17;;
15155;SDS011;7678;50.058;8.306;2024-02-15T00:18:12;20.73;;;16.67;;
15155;SDS011;7678;50.058;8.306;2024-02-15T00:20:40;18.87;;;16.80;;
15155;SDS011;7678;50.058;8.306;2024-02-15T00:23:11;16.70;;;14.90;;
15155;SDS011;7678;50.058;8.306;2024-02-15T00:25:40;23.47;;;18.10;;
15155;SDS011;7678;50.058;8.306;2024-02-15T00:28:11;20.63;;;15.43;;
15155;SDS011;7678;50.058;8.306;2024-02-15T00:30:39;19.67;;;15.63;;
15155;SDS011;7678;50.058;8.306;2024-02-15T00:33:09;19.70;;;16.13;;
15155;SDS011;7678;50.058;8.306;2024-02-15T00:35:38;22.00;;;16.47;;
15155;SDS011;7678;50.058;8.306;2024-02-15T00:38:08;20.53;;;17.77;;
15155;SDS011;7678;50.058;8.306;2024-02-15T00:40:36;21.00;;;16.00;;
15155;SDS011;7678;50.058;8.306;2024-02-15T00:43:06;22.10;;;16.33;;
15155;SDS011;7678;50.058;8.306;2024-02-15T00:45:34;18.17;;;16.10;;
15155;SDS011;7678;50.058;8.306;2024-02-15T00:48:03;16.77;;;14.67;;
15155;SDS011;7678;50.058;8.306;2024-02-15T00:50:34;16.47;;;14.77;;
15155;SDS011;7678;50.058;8.306;2024-02-15T00:53:03;22.27;;;18.90;;
15155;SDS011;7678;50.058;8.306;2024-02-15T00:55:31;21.73;;;18.50;;
15155;SDS011;7678;50.058;8.306;2024-02-15T00:58:00;19.57;;;17.47;;
15155;SDS011;7678;50.058;8.306;2024-02-15T01:00:29;19.43;;;16.77;;
15155;SDS011;7678;50.058;8.306;2024-02-15T01:02:58;18.43;;;15.43;;
15155;SDS011;7678;50.058;8.306;2024-02-15T01:05:26;20.30;;;17.40;;
15155;SDS011;7678;50.058;8.306;2024-02-15T01:07:56;20.07;;;15.90;;
15155;SDS011;7678;50.058;8.306;2024-02-15T01:10:25;19.03;;;14.63;;
15155;SDS011;7678;50.058;8.306;2024-02-15T01:12:53;19.00;;;16.93;;
15155;SDS011;7678;50.058;8.306;2024-02-15T01:15:21;18.77;;;16.30;;
15155;SDS011;7678;50.058;8.306;2024-02-15T01:17:49;19.93;;;16.07;;
15155;SDS011;7678;50.058;8.306;2024-02-15T01:20:18;18.40;;;14.00;;
15155;SDS011;7678;50.058;8.306;2024-02-15T01:22:47;17.93;;;16.13;;
15155;SDS011;7678;50.058;8.306;2024-02-15T01:25:17;18.30;;;15.30;;
15155;SDS011;7678;50.058;8.306;2024-02-15T01:27:46;16.43;;;14.83;;
15155;SDS011;7678;50.058;8.306;2024-02-15T01:30:15;17.37;;;15.57;;
15155;SDS011;7678;50.058;8.306;2024-02-15T01:32:44;16.50;;;14.80;;
15155;SDS011;7678;50.058;8.306;2024-02-15T01:35:12;14.93;;;13.03;;
15155;SDS011;7678;50.058;8.306;2024-02-15T01:37:41;17.20;;;14.90;;
15155;SDS011;7678;50.058;8.306;2024-02-15T01:40:09;17.83;;;14.07;;
15155;SDS011;7678;50.058;8.306;2024-02-15T01:42:47;19.83;;;15.87;;
15155;SDS011;7678;50.058;8.306;2024-02-15T01:45:16;19.03;;;17.03;;
15155;SDS011;7678;50.058;8.306;2024-02-15T01:47:45;17.43;;;15.47;;
15155;SDS011;7678;50.058;8.306;2024-02-15T01:50:15;17.67;;;14.63;;
15155;SDS011;7678;50.058;8.306;2024-02-15T01:52:45;16.37;;;14.67;;
15155;SDS011;7678;50.058;8.306;2024-02-15T01:55:15;19.90;;;15.73;;
15155;SDS011;7678;50.058;8.306;2024-02-15T01:57:46;16.50;;;14.77;;
15155;SDS011;7678;50.058;8.306;2024-02-15T02:00:17;24.50;;;17.37;;
15155;SDS011;7678;50.058;8.306;2024-02-15T02:02:46;18.17;;;15.23;;
15155;SDS011;7678;50.058;8.306;2024-02-15T02:05:15;16.53;;;14.43;;
15155;SDS011;7678;50.058;8.306;2024-02-15T02:07:48;30.33;;;19.37;;
15155;SDS011;7678;50.058;8.306;2024-02-15T02:10:16;21.70;;;18.23;;
15155;SDS011;7678;50.058;8.306;2024-02-15T02:12:46;23.77;;;18.00;;
15155;SDS011;7678;50.058;8.306;2024-02-15T02:15:16;21.50;;;17.63;;
15155;SDS011;7678;50.058;8.306;2024-02-15T02:17:47;19.67;;;17.20;;
15155;SDS011;7678;50.058;8.306;2024-02-15T02:20:17;23.73;;;20.00;;
15155;SDS011;7678;50.058;8.306;2024-02-15T02:22:46;28.73;;;19.27;;
15155;SDS011;7678;50.058;8.306;2024-02-15T02:25:19;19.57;;;17.03;;
15155;SDS011;7678;50.058;8.306;2024-02-15T02:27:49;21.13;;;17.60;;
15155;SDS011;7678;50.058;8.306;2024-02-15T02:30:18;26.70;;;21.23;;
15155;SDS011;7678;50.058;8.306;2024-02-15T02:32:48;21.60;;;17.93;;
15155;SDS011;7678;50.058;8.306;2024-02-15T02:35:17;23.30;;;19.40;;
15155;SDS011;7678;50.058;8.306;2024-02-15T02:37:47;24.90;;;21.17;;
15155;SDS011;7678;50.058;8.306;2024-02-15T02:40:15;21.40;;;18.13;;
15155;SDS011;7678;50.058;8.306;2024-02-15T02:42:50;28.17;;;21.83;;
15155;SDS011;7678;50.058;8.306;2024-02-15T02:45:19;22.87;;;19.20;;
15155;SDS011;7678;50.058;8.306;2024-02-15T02:47:49;27.53;;;20.80;;
15155;SDS011;7678;50.058;8.306;2024-02-15T02:50:20;19.37;;;17.27;;
15155;SDS011;7678;50.058;8.306;2024-02-15T02:52:49;24.37;;;19.23;;
15155;SDS011;7678;50.058;8.306;2024-02-15T02:55:18;25.03;;;20.30;;
15155;SDS011;7678;50.058;8.306;2024-02-15T02:57:47;23.90;;;18.87;;
15155;SDS011;7678;50.058;8.306;2024-02-15T03:00:17;23.57;;;19.27;;
15155;SDS011;7678;50.058;8.306;2024-02-15T03:02:47;21.33;;;19.10;;
15155;SDS011;7678;50.058;8.306;2024-02-15T03:05:15;29.67;;;21.13;;
15155;SDS011;7678;50.058;8.306;2024-02-15T03:07:44;24.37;;;18.93;;
15155;SDS011;7678;50.058;8.306;2024-02-15T03:10:12;21.83;;;18.27;;
15155;SDS011;7678;50.058;8.306;2024-02-15T03:12:41;24.73;;;19.70;;
15155;SDS011;7678;50.058;8.306;2024-02-15T03:15:14;23.10;;;17.43;;
15155;SDS011;7678;50.058;8.306;2024-02-15T03:17:46;22.23;;;17.77;;
15155;SDS011;7678;50.058;8.306;2024-02-15T03:20:15;21.27;;;18.37;;
15155;SDS011;7678;50.058;8.306;2024-02-15T03:22:52;20.07;;;16.70;;
15155;SDS011;7678;50.058;8.306;2024-02-15T03:25:22;20.93;;;16.97;;
15155;SDS011;7678;50.058;8.306;2024-02-15T03:27:52;16.97;;;15.03;;
15155;SDS011;7678;50.058;8.306;2024-02-15T03:30:24;26.13;;;19.07;;
15155;SDS011;7678;50.058;8.306;2024-02-15T03:32:55;22.97;;;18.23;;
15155;SDS011;7678;50.058;8.306;2024-02-15T03:35:27;19.30;;;16.33;;
15155;SDS011;7678;50.058;8.306;2024-02-15T03:37:58;25.20;;;18.77;;
15155;SDS011;7678;50.058;8.306;2024-02-15T03:40:28;21.40;;;18.97;;
15155;SDS011;7678;50.058;8.306;2024-02-15T03:42:59;21.57;;;18.17;;
15155;SDS011;7678;50.058;8.306;2024-02-15T03:45:29;18.07;;;16.17;;
15155;SDS011;7678;50.058;8.306;2024-02-15T03:47:57;22.20;;;17.60;;
15155;SDS011;7678;50.058;8.306;2024-02-15T03:50:26;20.87;;;17.30;;
15155;SDS011;7678;50.058;8.306;2024-02-15T03:52:56;25.03;;;19.57;;
15155;SDS011;7678;50.058;8.306;2024-02-15T03:55:26;27.20;;;19.00;;
15155;SDS011;7678;50.058;8.306;2024-02-15T03:57:56;19.87;;;15.53;;
15155;SDS011;7678;50.058;8.306;2024-02-15T04:00:28;20.37;;;16.37;;
15155;SDS011;7678;50.058;8.306;2024-02-15T04:02:56;22.43;;;18.47;;
15155;SDS011;7678;50.058;8.306;2024-02-15T04:05:25;21.20;;;16.17;;
15155;SDS011;7678;50.058;8.306;2024-02-15T04:07:53;19.90;;;16.53;;
15155;SDS011;7678;50.058;8.306;2024-02-15T04:10:24;18.23;;;16.33;;
15155;SDS011;7678;50.058;8.306;2024-02-15T04:12:52;23.47;;;18.03;;
15155;SDS011;7678;50.058;8.306;2024-02-15T04:15:24;22.50;;;18.53;;
15155;SDS011;7678;50.058;8.306;2024-02-15T04:17:54;26.17;;;18.80;;
15155;SDS011;7678;50.058;8.306;2024-02-15T04:20:24;21.73;;;15.87;;
15155;SDS011;7678;50.058;8.306;2024-02-15T04:22:53;21.63;;;19.33;;
15155;SDS011;7678;50.058;8.306;2024-02-15T04:25:23;23.80;;;19.40;;
15155;SDS011;7678;50.058;8.306;2024-02-15T04:27:54;29.23;;;20.57;;
15155;SDS011;7678;50.058;8.306;2024-02-15T04:30:24;35.27;;;21.97;;
15155;SDS011;7678;50.058;8.306;2024-02-15T04:32:55;25.30;;;19.83;;
15155;SDS011;7678;50.058;8.306;2024-02-15T04:35:23;21.47;;;17.50;;
15155;SDS011;7678;50.058;8.306;2024-02-15T04:37:53;25.10;;;20.90;;
15155;SDS011;7678;50.058;8.306;2024-02-15T04:40:21;22.47;;;19.37;;
15155;SDS011;7678;50.058;8.306;2024-02-15T04:42:50;18.30;;;16.40;;
15155;SDS011;7678;50.058;8.306;2024-02-15T04:45:18;21.80;;;17.90;;
15155;SDS011;7678;50.058;8.306;2024-02-15T04:47:49;23.80;;;18.13;;
15155;SDS011;7678;50.058;8.306;2024-02-15T04:50:21;23.57;;;20.50;;
15155;SDS011;7678;50.058;8.306;2024-02-15T04:52:52;22.10;;;18.27;;
15155;SDS011;7678;50.058;8.306;2024-02-15T04:55:22;25.47;;;19.57;;
15155;SDS011;7678;50.058;8.306;2024-02-15T04:57:53;24.30;;;19.07;;
15155;SDS011;7678;50.058;8.306;2024-02-15T05:00:23;20.87;;;18.27;;
15155;SDS011;7678;50.058;8.306;2024-02-15T05:02:52;21.07;;;16.53;;
15155;SDS011;7678;50.058;8.306;2024-02-15T05:05:22;19.93;;;15.77;;
15155;SDS011;7678;50.058;8.306;2024-02-15T05:07:51;22.73;;;17.57;;
15155;SDS011;7678;50.058;8.306;2024-02-15T05:10:19;20.60;;;16.57;;
15155;SDS011;7678;50.058;8.306;2024-02-15T05:12:50;19.43;;;16.10;;
15155;SDS011;7678;50.058;8.306;2024-02-15T05:15:20;20.13;;;16.03;;
15155;SDS011;7678;50.058;8.306;2024-02-15T05:17:51;17.57;;;14.93;;
15155;SDS011;7678;50.058;8.306;2024-02-15T05:20:22;21.40;;;17.20;;
15155;SDS011;7678;50.058;8.306;2024-02-15T05:23:00;23.80;;;16.50;;
15155;SDS011;7678;50.058;8.306;2024-02-15T05:25:29;21.37;;;15.90;;
15155;SDS011;7678;50.058;8.306;2024-02-15T05:27:59;21.87;;;15.43;;
15155;SDS011;7678;50.058;8.306;2024-02-15T05:30:27;20.80;;;16.70;;
15155;SDS011;7678;50.058;8.306;2024-02-15T05:32:59;19.13;;;15.13;;
15155;SDS011;7678;50.058;8.306;2024-02-15T05:35:36;21.80;;;16.20;;
15155;SDS011;7678;50.058;8.306;2024-02-15T05:38:07;19.40;;;14.93;;
15155;SDS011;7678;50.058;8.306;2024-02-15T05:40:47;17.67;;;14.23;;
15155;SDS011;7678;50.058;8.306;2024-02-15T05:43:17;20.67;;;14.93;;
15155;SDS011;7678;50.058;8.306;2024-02-15T05:45:46;18.90;;;14.53;;
15155;SDS011;7678;50.058;8.306;2024-02-15T05:48:15;20.90;;;14.60;;
15155;SDS011;7678;50.058;8.306;2024-02-15T05:50:45;24.50;;;15.53;;
15155;SDS011;7678;50.058;8.306;2024-02-15T05:53:18;17.57;;;14.23;;
15155;SDS011;7678;50.058;8.306;2024-02-15T05:55:51;18.23;;;13.93;;
15155;SDS011;7678;50.058;8.306;2024-02-15T05:58:22;20.83;;;14.17;;
15155;SDS011;7678;50.058;8.306;2024-02-15T06:00:51;17.50;;;13.13;;
15155;SDS011;7678;50.058;8.306;2024-02-15T06:03:20;15.73;;;13.37;;
15155;SDS011;7678;50.058;8.306;2024-02-15T06:05:50;16.60;;;13.10;;
15155;SDS011;7678;50.058;8.306;2024-02-15T06:08:25;18.43;;;13.10;;
15155;SDS011;7678;50.058;8.306;2024-02-15T06:10:53;14.13;;;12.50;;
15155;SDS011;7678;50.058;8.306;2024-02-15T06:13:22;18.73;;;11.80;;
15155;SDS011;7678;50.058;8.306;2024-02-15T06:15:51;12.60;;;11.23;;
15155;SDS011;7678;50.058;8.306;2024-02-15T06:18:20;20.03;;;13.93;;
15155;SDS011;7678;50.058;8.306;2024-02-15T06:20:52;21.83;;;14.03;;
15155;SDS011;7678;50.058;8.306;2024-02-15T06:23:23;20.00;;;13.20;;
15155;SDS011;7678;50.058;8.306;2024-02-15T06:25:52;22.10;;;14.67;;
15155;SDS011;7678;50.058;8.306;2024-02-15T06:28:22;17.73;;;12.50;;
15155;SDS011;7678;50.058;8.306;2024-02-15T06:31:05;14.17;;;11.33;;
15155;SDS011;7678;50.058;8.306;2024-02-15T06:33:51;12.83;;;11.07;;
15155;SDS011;7678;50.058;8.306;2024-02-15T06:36:40;17.43;;;13.00;;
15155;SDS011;7678;50.058;8.306;2024-02-15T06:39:30;17.57;;;12.77;;
15155;SDS011;7678;50.058;8.306;2024-02-15T06:42:12;20.43;;;11.90;;
15155;SDS011;7678;50.058;8.306;2024-02-15T06:44:43;21.63;;;11.90;;
15155;SDS011;7678;50.058;8.306;2024-02-15T06:47:11;18.90;;;12.00;;
15155;SDS011;7678;50.058;8.306;2024-02-15T06:49:43;17.70;;;11.87;;
15155;SDS011;7678;50.058;8.306;2024-02-15T06:52:18;20.70;;;12.33;;
15155;SDS011;7678;50.058;8.306;2024-02-15T06:54:47;20.33;;;13.80;;
15155;SDS011;7678;50.058;8.306;2024-02-15T06:57:17;19.27;;;13.10;;
15155;SDS011;7678;50.058;8.306;2024-02-15T06:59:47;16.83;;;12.00;;
15155;SDS011;7678;50.058;8.306;2024-02-15T07:02:15;18.00;;;12.10;;
15155;SDS011;7678;50.058;8.306;2024-02-15T07:04:44;17.00;;;12.40;;
15155;SDS011;7678;50.058;8.306;2024-02-15T07:07:12;24.73;;;12.73;;
15155;SDS011;7678;50.058;8.306;2024-02-15T07:09:45;19.60;;;13.67;;
15155;SDS011;7678;50.058;8.306;2024-02-15T07:12:16;19.03;;;13.27;;
15155;SDS011;7678;50.058;8.306;2024-02-15T07:14:45;24.73;;;13.33;;
15155;SDS011;7678;50.058;8.306;2024-02-15T07:17:14;17.33;;;12.93;;
15155;SDS011;7678;50.058;8.306;2024-02-15T07:19:43;18.43;;;12.63;;
15155;SDS011;7678;50.058;8.306;2024-02-15T07:22:11;21.83;;;14.47;;
15155;SDS011;7678;50.058;8.306;2024-02-15T07:24:40;18.97;;;12.70;;
15155;SDS011;7678;50.058;8.306;2024-02-15T07:27:10;18.97;;;12.27;;
15155;SDS011;7678;50.058;8.306;2024-02-15T07:29:39;19.90;;;13.33;;
15155;SDS011;7678;50.058;8.306;2024-02-15T07:32:08;22.70;;;16.83;;
15155;SDS011;7678;50.058;8.306;2024-02-15T07:34:36;19.63;;;16.07;;
15155;SDS011;7678;50.058;8.306;2024-02-15T07:37:04;22.63;;;17.60;;
15155;SDS011;7678;50.058;8.306;2024-02-15T07:39:35;24.70;;;18.13;;
15155;SDS011;7678;50.058;8.306;2024-02-15T07:42:04;28.97;;;17.70;;
15155;SDS011;7678;50.058;8.306;2024-02-15T07:44:36;23.83;;;15.30;;
15155;SDS011;7678;50.058;8.306;2024-02-15T07:47:04;21.00;;;14.77;;
15155;SDS011;7678;50.058;8.306;2024-02-15T07:49:33;21.70;;;13.63;;
15155;SDS011;7678;50.058;8.306;2024-02-15T07:52:03;19.40;;;14.10;;
15155;SDS011;7678;50.058;8.306;2024-02-15T07:54:33;17.57;;;12.70;;
15155;SDS011;7678;50.058;8.306;2024-02-15T07:57:01;16.90;;;12.33;;
15155;SDS011;7678;50.058;8.306;2024-02-15T07:59:31;17.97;;;12.23;;
15155;SDS011;7678;50.058;8.306;2024-02-15T08:02:07;16.73;;;12.87;;
15155;SDS011;7678;50.058;8.306;2024-02-15T08:04:37;24.27;;;14.80;;
15155;SDS011;7678;50.058;8.306;2024-02-15T08:07:07;19.90;;;12.63;;
15155;SDS011;7678;50.058;8.306;2024-02-15T08:09:38;21.43;;;14.07;;
15155;SDS011;7678;50.058;8.306;2024-02-15T08:12:10;18.57;;;12.80;;
15155;SDS011;7678;50.058;8.306;2024-02-15T08:14:39;17.90;;;11.93;;
15155;SDS011;7678;50.058;8.306;2024-02-15T08:17:10;17.63;;;12.43;;
15155;SDS011;7678;50.058;8.306;2024-02-15T08:19:39;15.00;;;12.13;;
15155;SDS011;7678;50.058;8.306;2024-02-15T08:22:12;14.83;;;13.17;;
15155;SDS011;7678;50.058;8.306;2024-02-15T08:24:40;15.70;;;12.47;;
15155;SDS011;7678;50.058;8.306;2024-02-15T08:27:10;19.50;;;13.37;;
15155;SDS011;7678;50.058;8.306;2024-02-15T08:29:39;18.13;;;12.10;;
15155;SDS011;7678;50.058;8.306;2024-02-15T08:32:07;18.17;;;12.83;;
15155;SDS011;7678;50.058;8.306;2024-02-15T08:34:38;16.60;;;12.47;;
15155;SDS011;7678;50.058;8.306;2024-02-15T08:37:06;20.70;;;13.50;;
15155;SDS011;7678;50.058;8.306;2024-02-15T08:39:35;21.03;;;13.87;;
15155;SDS011;7678;50.058;8.306;2024-02-15T08:42:04;17.70;;;12.73;;
15155;SDS011;7678;50.058;8.306;2024-02-15T08:44:32;17.87;;;12.20;;
15155;SDS011;7678;50.058;8.306;2024-02-15T08:47:01;16.13;;;11.63;;
15155;SDS011;7678;50.058;8.306;2024-02-15T08:49:31;19.20;;;12.50;;
15155;SDS011;7678;50.058;8.306;2024-02-15T08:52:01;25.80;;;12.67;;
15155;SDS011;7678;50.058;8.306;2024-02-15T08:54:30;21.63;;;11.93;;
15155;SDS011;7678;50.058;8.306;2024-02-15T08:56:59;21.80;;;11.53;;
15155;SDS011;7678;50.058;8.306;2024-02-15T08:59:28;23.47;;;11.77;;
15155;SDS011;7678;50.058;8.306;2024-02-15T09:01:56;16.23;;;10.87;;
15155;SDS011;7678;50.058;8.306;2024-02-15T09:04:29;16.40;;;10.93;;
15155;SDS011;7678;50.058;8.306;2024-02-15T09:06:57;17.00;;;10.70;;
15155;SDS011;7678;50.058;8.306;2024-02-15T09:09:29;17.87;;;10.37;;
15155;SDS011;7678;50.058;8.306;2024-02-15T09:12:00;14.97;;;10.50;;
15155;SDS011;7678;50.058;8.306;2024-02-15T09:14:39;17.03;;;9.67;;
15155;SDS011;7678;50.058;8.306;2024-02-15T09:17:07;13.13;;;9.43;;
15155;SDS011;7678;50.058;8.306;2024-02-15T09:19:36;13.97;;;8.83;;
15155;SDS011;7678;50.058;8.306;2024-02-15T09:22:04;15.07;;;9.00;;
15155;SDS011;7678;50.058;8.306;2024-02-15T09:24:34;13.80;;;8.80;;
15155;SDS011;7678;50.058;8.306;2024-02-15T09:27:04;15.77;;;8.93;;
15155;SDS011;7678;50.058;8.306;2024-02-15T09:29:32;14.97;;;8.23;;
15155;SDS011;7678;50.058;8.306;2024-02-15T09:32:01;10.37;;;7.70;;
15155;SDS011;7678;50.058;8.306;2024-02-15T09:34:29;16.30;;;8.37;;
15155;SDS011;7678;50.058;8.306;2024-02-15T09:36:59;15.77;;;7.47;;
15155;SDS011;7678;50.058;8.306;2024-02-15T09:39:28;10.73;;;7.83;;
15155;SDS011;7678;50.058;8.306;2024-02-15T09:41:58;68.90;;;62.70;;
15155;SDS011;7678;50.058;8.306;2024-02-15T09:44:26;17.90;;;8.93;;
15155;SDS011;7678;50.058;8.306;2024-02-15T09:47:02;10.67;;;6.93;;
15155;SDS011;7678;50.058;8.306;2024-02-15T09:49:33;11.47;;;6.93;;
15155;SDS011;7678;50.058;8.306;2024-02-15T09:52:06;11.73;;;6.70;;
15155;SDS011;7678;50.058;8.306;2024-02-15T09:54:38;18.33;;;6.53;;
15155;SDS011;7678;50.058;8.306;2024-02-15T09:57:11;11.37;;;7.10;;
15155;SDS011;7678;50.058;8.306;2024-02-15T09:59:40;9.50;;;6.90;;
15155;SDS011;7678;50.058;8.306;2024-02-15T10:02:11;10.13;;;6.70;;
15155;SDS011;7678;50.058;8.306;2024-02-15T10:04:41;7.17;;;6.17;;
15155;SDS011;7678;50.058;8.306;2024-02-15T10:07:12;11.37;;;6.90;;
15155;SDS011;7678;50.058;8.306;2024-02-15T10:09:40;11.03;;;6.60;;
15155;SDS011;7678;50.058;8.306;2024-02-15T10:12:11;9.63;;;6.17;;
15155;SDS011;7678;50.058;8.306;2024-02-15T10:14:44;9.43;;;6.40;;
15155;SDS011;7678;50.058;8.306;2024-02-15T10:17:17;13.73;;;7.27;;
15155;SDS011;7678;50.058;8.306;2024-02-15T10:20:02;10.37;;;6.57;;
15155;SDS011;7678;50.058;8.306;2024-02-15T10:22:31;9.13;;;6.37;;
15155;SDS011;7678;50.058;8.306;2024-02-15T10:25:11;11.97;;;6.43;;
15155;SDS011;7678;50.058;8.306;2024-02-15T10:27:42;10.93;;;7.17;;
15155;SDS011;7678;50.058;8.306;2024-02-15T10:30:18;12.83;;;8.50;;
15155;SDS011;7678;50.058;8.306;2024-02-15T10:32:49;11.43;;;7.10;;
15155;SDS011;7678;50.058;8.306;2024-02-15T10:35:21;11.90;;;8.87;;
15155;SDS011;7678;50.058;8.306;2024-02-15T10:37:51;12.57;;;8.07;;
15155;SDS011;7678;50.058;8.306;2024-02-15T10:40:19;10.93;;;7.70;;
15155;SDS011;7678;50.058;8.306;2024-02-15T10:42:51;12.00;;;8.10;;
15155;SDS011;7678;50.058;8.306;2024-02-15T10:45:23;10.40;;;6.80;;
15155;SDS011;7678;50.058;8.306;2024-02-15T10:47:52;8.20;;;5.77;;
15155;SDS011;7678;50.058;8.306;2024-02-15T10:50:22;10.87;;;6.40;;
15155;SDS011;7678;50.058;8.306;2024-02-15T10:52:54;9.23;;;6.43;;
15155;SDS011;7678;50.058;8.306;2024-02-15T10:55:32;9.63;;;6.40;;
15155;SDS011;7678;50.058;8.306;2024-02-15T10:58:09;6.80;;;4.80;;
15155;SDS011;7678;50.058;8.306;2024-02-15T11:00:44;8.50;;;5.23;;
15155;SDS011;7678;50.058;8.306;2024-02-15T11:03:16;7.67;;;4.23;;
15155;SDS011;7678;50.058;8.306;2024-02-15T11:05:51;7.87;;;4.80;;
15155;SDS011;7678;50.058;8.306;2024-02-15T11:08:24;8.17;;;4.57;;
15155;SDS011;7678;50.058;8.306;2024-02-15T11:10:52;5.90;;;4.30;;
15155;SDS011;7678;50.058;8.306;2024-02-15T11:13:27;6.10;;;3.93;;
15155;SDS011;7678;50.058;8.306;2024-02-15T11:15:56;7.73;;;4.70;;
15155;SDS011;7678;50.058;8.306;2024-02-15T11:18:41;7.67;;;4.50;;
15155;SDS011;7678;50.058;8.306;2024-02-15T11:21:12;6.37;;;4.50;;
15155;SDS011;7678;50.058;8.306;2024-02-15T11:23:40;7.33;;;4.73;;
15155;SDS011;7678;50.058;8.306;2024-02-15T11:26:08;7.97;;;5.03;;
15155;SDS011;7678;50.058;8.306;2024-02-15T11:28:51;8.00;;;4.90;;
15155;SDS011;7678;50.058;8.306;2024-02-15T11:34:44;7.70;;;4.70;;
15155;SDS011;7678;50.058;8.306;2024-02-15T11:40:20;13.07;;;5.20;;
15155;SDS011;7678;50.058;8.306;2024-02-15T11:42:51;9.87;;;4.90;;
15155;SDS011;7678;50.058;8.306;2024-02-15T11:45:21;7.23;;;4.20;;
15155;SDS011;7678;50.058;8.306;2024-02-15T11:47:52;11.63;;;4.33;;
15155;SDS011;7678;50.058;8.306;2024-02-15T11:50:22;8.37;;;4.50;;
15155;SDS011;7678;50.058;8.306;2024-02-15T11:52:51;6.90;;;4.30;;
15155;SDS011;7678;50.058;8.306;2024-02-15T11:55:32;9.60;;;4.27;;
15155;SDS011;7678;50.058;8.306;2024-02-15T11:58:02;6.50;;;3.87;;
15155;SDS011;7678;50.058;8.306;2024-02-15T12:01:04;6.13;;;3.87;;
15155;SDS011;7678;50.058;8.306;2024-02-15T12:03:52;6.23;;;3.83;;
15155;SDS011;7678;50.058;8.306;2024-02-15T12:06:56;4.87;;;3.20;;
15155;SDS011;7678;50.058;8.306;2024-02-15T12:09:43;6.33;;;3.40;;
15155;SDS011;7678;50.058;8.306;2024-02-15T12:12:32;5.67;;;3.53;;
15155;SDS011;7678;50.058;8.306;2024-02-15T12:15:18;5.40;;;3.90;;
15155;SDS011;7678;50.058;8.306;2024-02-15T12:21:08;6.87;;;3.80;;
15155;SDS011;7678;50.058;8.306;2024-02-15T12:23:38;6.47;;;4.23;;
15155;SDS011;7678;50.058;8.306;2024-02-15T12:26:08;6.03;;;3.60;;
15155;SDS011;7678;50.058;8.306;2024-02-15T12:28:36;7.50;;;4.10;;
15155;SDS011;7678;50.058;8.306;2024-02-15T12:31:10;7.23;;;4.13;;
15155;SDS011;7678;50.058;8.306;2024-02-15T12:33:41;7.73;;;3.80;;
15155;SDS011;7678;50.058;8.306;2024-02-15T12:36:09;5.30;;;3.80;;
15155;SDS011;7678;50.058;8.306;2024-02-15T12:38:37;6.40;;;3.67;;
15155;SDS011;7678;50.058;8.306;2024-02-15T12:41:17;7.53;;;3.83;;
15155;SDS011;7678;50.058;8.306;2024-02-15T12:43:52;5.97;;;3.60;;
15155;SDS011;7678;50.058;8.306;2024-02-15T12:46:20;6.33;;;3.67;;
15155;SDS011;7678;50.058;8.306;2024-02-15T12:48:50;6.20;;;3.73;;
15155;SDS011;7678;50.058;8.306;2024-02-15T12:51:19;6.60;;;3.50;;
15155;SDS011;7678;50.058;8.306;2024-02-15T12:53:47;6.37;;;3.33;;
15155;SDS011;7678;50.058;8.306;2024-02-15T12:56:19;7.30;;;4.13;;
15155;SDS011;7678;50.058;8.306;2024-02-15T12:58:50;7.30;;;3.70;;
15155;SDS011;7678;50.058;8.306;2024-02-15T13:01:18;8.07;;;3.40;;
15155;SDS011;7678;50.058;8.306;2024-02-15T13:03:47;7.40;;;3.50;;
15155;SDS011;7678;50.058;8.306;2024-02-15T13:06:17;6.37;;;3.60;;
15155;SDS011;7678;50.058;8.306;2024-02-15T13:08:50;10.00;;;3.87;;
15155;SDS011;7678;50.058;8.306;2024-02-15T13:11:19;7.17;;;3.00;;
15155;SDS011;7678;50.058;8.306;2024-02-15T13:13:48;8.13;;;3.10;;
15155;SDS011;7678;50.058;8.306;2024-02-15T13:16:16;7.03;;;3.53;;
15155;SDS011;7678;50.058;8.306;2024-02-15T13:18:45;5.83;;;2.87;;
15155;SDS011;7678;50.058;8.306;2024-02-15T13:21:14;5.53;;;3.00;;
15155;SDS011;7678;50.058;8.306;2024-02-15T13:23:45;6.37;;;2.60;;
15155;SDS011;7678;50.058;8.306;2024-02-15T13:26:14;7.20;;;3.57;;
15155;SDS011;7678;50.058;8.306;2024-02-15T13:28:42;8.17;;;2.90;;
15155;SDS011;7678;50.058;8.306;2024-02-15T13:31:11;6.63;;;3.30;;
15155;SDS011;7678;50.058;8.306;2024-02-15T13:33:40;5.87;;;3.10;;
15155;SDS011;7678;50.058;8.306;2024-02-15T13:36:08;6.27;;;2.90;;
15155;SDS011;7678;50.058;8.306;2024-02-15T13:38:39;6.40;;;2.90;;
15155;SDS011;7678;50.058;8.306;2024-02-15T13:41:07;6.70;;;3.10;;
15155;SDS011;7678;50.058;8.306;2024-02-15T13:43:35;5.30;;;2.47;;
15155;SDS011;7678;50.058;8.306;2024-02-15T13:46:05;6.17;;;3.20;;
15155;SDS011;7678;50.058;8.306;2024-02-15T13:48:33;6.73;;;2.90;;
15155;SDS011;7678;50.058;8.306;2024-02-15T13:51:03;6.57;;;2.90;;
15155;SDS011;7678;50.058;8.306;2024-02-15T13:53:36;7.43;;;2.87;;
15155;SDS011;7678;50.058;8.306;2024-02-15T13:56:06;5.53;;;2.63;;
15155;SDS011;7678;50.058;8.306;2024-02-15T13:58:35;5.93;;;2.40;;
15155;SDS011;7678;50.058;8.306;2024-02-15T14:01:05;5.50;;;2.47;;
15155;SDS011;7678;50.058;8.306;2024-02-15T14:03:34;5.87;;;2.80;;
15155;SDS011;7678;50.058;8.306;2024-02-15T14:06:02;7.77;;;2.80;;
15155;SDS011;7678;50.058;8.306;2024-02-15T14:08:31;7.30;;;2.83;;
15155;SDS011;7678;50.058;8.306;2024-02-15T14:11:00;5.07;;;2.70;;
15155;SDS011;7678;50.058;8.306;2024-02-15T14:13:30;7.13;;;2.73;;
15155;SDS011;7678;50.058;8.306;2024-02-15T14:15:59;4.73;;;2.33;;
15155;SDS011;7678;50.058;8.306;2024-02-15T14:18:27;6.63;;;2.73;;
15155;SDS011;7678;50.058;8.306;2024-02-15T14:20:55;6.40;;;2.60;;
15155;SDS011;7678;50.058;8.306;2024-02-15T14:23:25;4.90;;;2.33;;
15155;SDS011;7678;50.058;8.306;2024-02-15T14:25:53;5.33;;;2.57;;
15155;SDS011;7678;50.058;8.306;2024-02-15T14:28:26;4.97;;;2.70;;
15155;SDS011;7678;50.058;8.306;2024-02-15T14:30:57;7.70;;;2.57;;
15155;SDS011;7678;50.058;8.306;2024-02-15T14:33:43;6.87;;;3.17;;
15155;SDS011;7678;50.058;8.306;2024-02-15T14:36:11;4.13;;;2.20;;
15155;SDS011;7678;50.058;8.306;2024-02-15T14:38:41;6.57;;;2.73;;
15155;SDS011;7678;50.058;8.306;2024-02-15T14:41:09;6.93;;;3.00;;
15155;SDS011;7678;50.058;8.306;2024-02-15T14:43:40;5.47;;;2.30;;
15155;SDS011;7678;50.058;8.306;2024-02-15T14:46:11;4.10;;;1.90;;
15155;SDS011;7678;50.058;8.306;2024-02-15T14:48:39;6.50;;;2.37;;
15155;SDS011;7678;50.058;8.306;2024-02-15T14:51:07;6.13;;;2.37;;
15155;SDS011;7678;50.058;8.306;2024-02-15T14:53:37;5.07;;;2.37;;
15155;SDS011;7678;50.058;8.306;2024-02-15T14:56:05;4.47;;;2.10;;
15155;SDS011;7678;50.058;8.306;2024-02-15T14:58:35;5.57;;;2.57;;
15155;SDS011;7678;50.058;8.306;2024-02-15T15:01:03;4.60;;;2.30;;
15155;SDS011;7678;50.058;8.306;2024-02-15T15:03:38;5.13;;;2.50;;
15155;SDS011;7678;50.058;8.306;2024-02-15T15:06:06;4.90;;;2.50;;
15155;SDS011;7678;50.058;8.306;2024-02-15T15:08:49;3.40;;;2.10;;
15155;SDS011;7678;50.058;8.306;2024-02-15T15:11:35;6.30;;;2.57;;
15155;SDS011;7678;50.058;8.306;2024-02-15T15:14:21;3.53;;;1.80;;